Time;durP1;ratioP1;P1;durP2;ratioP2;P2;SDS_P1;SDS_P2;PMS_P1;PMS_P2;Temp;Humidity;BMP_temperature;BMP_pressure;BME280_temperature;BME280_humidity;BME280_pressure;Samples;Min_cycle;Max_cycle;Signal;HPM_P1;HPM_P2
2021/06/15 00:00:31;;;;;;;4.9;3.1;;;;;;;15.72;70.67871;941.4235;;;;
2021/06/15 00:02:57;;;;;;;5.9;3.3;;;;;;;15.61;71.27441;941.4349;;;;
2021/06/15 00:05:23;;;;;;;5.3;2.9;;;;;;;15.66;71.23535;941.4205;;;;
2021/06/15 00:07:49;;;;;;;7.6;3;;;;;;;15.66;71.31543;941.386;;;;
2021/06/15 00:10:14;;;;;;;4;3;;;;;;;15.59;71.00391;941.3652;;;;
2021/06/15 00:12:40;;;;;;;6;3.1;;;;;;;15.59;70.94531;941.317;;;;
2021/06/15 00:15:07;;;;;;;5.7;3.1;;;;;;;15.58;70.93359;941.275;;;;
2021/06/15 00:17:32;;;;;;;4;3.1;;;;;;;15.36;71.83203;941.2517;;;;
2021/06/15 00:19:57;;;;;;;4.8;2.7;;;;;;;15.18;72.66797;941.1791;;;;
2021/06/15 00:22:23;;;;;;;6.1;2.9;;;;;;;15.1;72.68945;941.2508;;;;
2021/06/15 00:24:48;;;;;;;6;3.3;;;;;;;15.12;72.41699;941.2274;;;;
2021/06/15 00:27:14;;;;;;;3.6;3;;;;;;;15;72.90332;941.1978;;;;
2021/06/15 00:29:39;;;;;;;4.8;3.2;;;;;;;14.81;73.68066;941.1996;;;;
2021/06/15 00:32:06;;;;;;;4.4;3;;;;;;;14.54;74.86719;941.2078;;;;
2021/06/15 00:34:31;;;;;;;4.3;3.1;;;;;;;14.55;74.82422;941.2302;;;;
2021/06/15 00:36:58;;;;;;;4.1;3.2;;;;;;;14.53;74.83105;941.2142;;;;
2021/06/15 00:39:24;;;;;;;5;3.5;;;;;;;14.54;74.73926;941.1774;;;;
2021/06/15 00:41:49;;;;;;;4.8;3.3;;;;;;;14.41;75.23633;941.1841;;;;
2021/06/15 00:44:15;;;;;;;3.9;3.1;;;;;;;14.51;75.02246;941.1702;;;;
2021/06/15 00:46:40;;;;;;;5.5;2.9;;;;;;;14.69;74.29297;941.1606;;;;
2021/06/15 00:49:09;;;;;;;3.4;2.8;;;;;;;14.66;74.25391;941.1767;;;;
2021/06/15 00:51:34;;;;;;;3.9;3;;;;;;;14.76;73.98242;941.1276;;;;
2021/06/15 00:53:59;;;;;;;4.8;3;;;;;;;14.87;73.49316;941.1083;;;;
2021/06/15 00:56:24;;;;;;;4.6;3;;;;;;;14.91;73.23535;941.1499;;;;
2021/06/15 00:58:53;;;;;;;4.3;3.2;;;;;;;14.87;73.29688;941.1259;;;;
2021/06/15 01:01:18;;;;;;;4;3;;;;;;;14.79;73.69922;941.097;;;;
2021/06/15 01:03:44;;;;;;;4;3.3;;;;;;;14.78;73.87207;941.0281;;;;
2021/06/15 01:06:09;;;;;;;6.9;3.6;;;;;;;14.73;73.98926;941.0795;;;;
2021/06/15 01:08:34;;;;;;;5.4;3.4;;;;;;;14.78;73.75488;941.0602;;;;
2021/06/15 01:11:04;;;;;;;3.9;3.2;;;;;;;14.81;73.63379;940.9991;;;;
2021/06/15 01:13:35;;;;;;;4.5;3.2;;;;;;;14.81;73.66895;940.9639;;;;
2021/06/15 01:16:06;;;;;;;5;3.5;;;;;;;14.79;73.79102;940.9928;;;;
2021/06/15 01:18:38;;;;;;;6.7;3.3;;;;;;;14.77;73.9375;941.033;;;;
2021/06/15 01:21:21;;;;;;;5;3.3;;;;;;;14.79;73.76758;940.984;;;;
2021/06/15 01:23:50;;;;;;;4.1;3;;;;;;;14.75;73.92285;941.0041;;;;
2021/06/15 01:26:19;;;;;;;4.4;3.1;;;;;;;14.73;74.05859;941.0002;;;;
2021/06/15 01:28:44;;;;;;;8.2;3.3;;;;;;;14.72;74.08984;941.0323;;;;
2021/06/15 01:31:09;;;;;;;8.8;3.6;;;;;;;14.7;74.03125;940.9866;;;;
2021/06/15 01:33:34;;;;;;;4.2;3.4;;;;;;;14.61;74.10645;940.9408;;;;
2021/06/15 01:35:59;;;;;;;4.7;3.3;;;;;;;14.65;74.04492;941.0196;;;;
2021/06/15 01:38:26;;;;;;;5;3.1;;;;;;;14.63;74.04199;941.026;;;;
2021/06/15 01:40:51;;;;;;;4.8;2.9;;;;;;;14.46;74.5293;941.0067;;;;
2021/06/15 01:43:16;;;;;;;4;3;;;;;;;14.35;74.98438;940.9157;;;;
2021/06/15 01:45:41;;;;;;;8;4.4;;;;;;;14.27;75.32813;940.8405;;;;
2021/06/15 01:48:06;;;;;;;6.4;3.3;;;;;;;14.24;75.48242;940.8582;;;;
2021/06/15 01:50:32;;;;;;;6.3;3.7;;;;;;;14.23;75.50586;940.9446;;;;
2021/06/15 01:52:57;;;;;;;5.1;3.3;;;;;;;14.28;75.41016;940.8092;;;;
2021/06/15 01:55:22;;;;;;;7;3.6;;;;;;;14.28;75.01855;940.8869;;;;
2021/06/15 01:57:47;;;;;;;5.9;3.8;;;;;;;14.13;75.75195;940.8265;;;;
2021/06/15 02:00:14;;;;;;;6.3;3.5;;;;;;;14.26;75.28027;940.8348;;;;
2021/06/15 02:02:39;;;;;;;6.6;4;;;;;;;14.28;75.06445;940.8605;;;;
2021/06/15 02:05:09;;;;;;;5.4;3.5;;;;;;;14.28;75.06445;940.8077;;;;
2021/06/15 02:07:38;;;;;;;4.9;3.5;;;;;;;14.3;75.06738;940.8701;;;;
2021/06/15 02:10:03;;;;;;;4.2;3.5;;;;;;;14.3;75.06738;940.8677;;;;
2021/06/15 02:12:28;;;;;;;4.1;3.5;;;;;;;14.32;74.99121;940.9005;;;;
2021/06/15 02:14:53;;;;;;;4.6;3.4;;;;;;;14.36;74.88281;940.9061;;;;
2021/06/15 02:17:22;;;;;;;6.1;3.3;;;;;;;14.33;74.98047;940.8492;;;;
2021/06/15 02:19:47;;;;;;;5.1;3.2;;;;;;;14.31;74.9541;940.798;;;;
2021/06/15 02:22:12;;;;;;;4.6;3.4;;;;;;;14.33;74.98047;940.8717;;;;
2021/06/15 02:24:38;;;;;;;5.9;3.6;;;;;;;14.3;75.09082;940.8253;;;;
2021/06/15 02:27:03;;;;;;;5.7;3.8;;;;;;;14.35;74.96191;940.7819;;;;
2021/06/15 02:29:28;;;;;;;15.9;5.2;;;;;;;14.3;74.96387;940.7452;;;;
2021/06/15 02:31:55;;;;;;;8;4.2;;;;;;;14.22;75.37598;940.7628;;;;
2021/06/15 02:34:21;;;;;;;7.3;3.9;;;;;;;14.05;76.14063;940.7498;;;;
2021/06/15 02:36:46;;;;;;;6.8;3.6;;;;;;;14;76.52441;940.8439;;;;
2021/06/15 02:39:11;;;;;;;8.9;4.4;;;;;;;13.88;76.97559;940.8318;;;;
2021/06/15 02:41:36;;;;;;;6.5;4.2;;;;;;;13.85;77.3252;940.8094;;;;
2021/06/15 02:44:02;;;;;;;8;4.2;;;;;;;13.88;77.22656;940.7966;;;;
2021/06/15 02:46:30;;;;;;;8.9;4.8;;;;;;;13.87;77.53613;940.9014;;;;
2021/06/15 02:48:55;;;;;;;5.6;3.8;;;;;;;13.85;77.22168;940.8783;;;;
2021/06/15 02:51:22;;;;;;;6.9;3.9;;;;;;;13.78;77.51953;940.9019;;;;
2021/06/15 02:53:47;;;;;;;8.5;4.2;;;;;;;13.79;77.49805;940.8731;;;;
2021/06/15 02:56:14;;;;;;;6.3;3.7;;;;;;;13.8;77.57031;940.8251;;;;
2021/06/15 02:58:39;;;;;;;6.7;3.4;;;;;;;13.88;77.25098;940.8823;;;;
2021/06/15 03:01:04;;;;;;;4.1;3.7;;;;;;;13.89;77.35449;940.8727;;;;
2021/06/15 03:03:31;;;;;;;3.8;3.1;;;;;;;13.84;77.39258;940.8911;;;;
2021/06/15 03:05:56;;;;;;;5.7;3.5;;;;;;;13.83;77.20898;940.8646;;;;
2021/06/15 03:08:23;;;;;;;4;3.5;;;;;;;13.88;76.88184;940.8918;;;;
2021/06/15 03:10:49;;;;;;;4.7;3.5;;;;;;;13.92;77.00488;940.908;;;;
2021/06/15 03:13:17;;;;;;;6;3.6;;;;;;;13.93;76.68359;940.9295;;;;
2021/06/15 03:15:52;;;;;;;6.9;3.6;;;;;;;13.92;76.87793;940.9688;;;;
2021/06/15 03:18:17;;;;;;;4.9;3.7;;;;;;;13.78;77.74023;941.0051;;;;
2021/06/15 03:20:42;;;;;;;7.7;4.1;;;;;;;13.79;77.84473;940.9587;;;;
2021/06/15 03:23:07;;;;;;;7.2;3.8;;;;;;;13.86;77.24805;941.0464;;;;
2021/06/15 03:25:33;;;;;;;7.4;4;;;;;;;13.75;77.66309;940.9995;;;;
2021/06/15 03:28:02;;;;;;;7.1;3.8;;;;;;;13.67;78.06348;941.0417;;;;
2021/06/15 03:30:27;;;;;;;6.6;4.1;;;;;;;13.39;79.33594;940.9917;;;;
2021/06/15 03:32:55;;;;;;;6.9;4;;;;;;;13.45;79.41602;940.9353;;;;
2021/06/15 03:35:20;;;;;;;5.9;4.1;;;;;;;13.39;79.76074;941.0276;;;;
2021/06/15 03:37:45;;;;;;;6.8;3.9;;;;;;;13.38;79.9082;941.0012;;;;
2021/06/15 03:40:10;;;;;;;6.1;3.7;;;;;;;13.55;79.41113;941.07;;;;
2021/06/15 03:42:40;;;;;;;8.5;3.9;;;;;;;13.64;79.16309;941.0145;;;;
2021/06/15 03:45:03;;;;;;;9.1;4.1;;;;;;;13.85;78.55664;941.072;;;;
2021/06/15 03:47:29;;;;;;;7.9;4.3;;;;;;;13.98;78.05176;941.0289;;;;
2021/06/15 03:49:55;;;;;;;8.4;4.2;;;;;;;14.09;77.2207;941.0444;;;;
2021/06/15 03:52:19;;;;;;;6.1;4.2;;;;;;;14.1;77.02539;941.0388;;;;
2021/06/15 03:54:47;;;;;;;6;4;;;;;;;14.17;76.77246;941.0884;;;;
2021/06/15 03:57:12;;;;;;;9.5;4.1;;;;;;;14.2;76.30566;941.0748;;;;
2021/06/15 03:59:37;;;;;;;8.1;3.9;;;;;;;14.05;76.60059;941.022;;;;
2021/06/15 04:02:31;;;;;;;8;4.1;;;;;;;14.11;76.89844;941.0837;;;;
2021/06/15 04:04:55;;;;;;;5;3.6;;;;;;;14.08;76.80273;941.0804;;;;
2021/06/15 04:07:20;;;;;;;6.1;3.9;;;;;;;14.01;77.2627;941.0577;;;;
2021/06/15 04:09:45;;;;;;;8.1;3.8;;;;;;;14.14;77.10059;941.05;;;;
2021/06/15 04:12:11;;;;;;;7.6;4.5;;;;;;;14.18;77.17578;941.0356;;;;
2021/06/15 04:15:04;;;;;;;9.5;4.9;;;;;;;14.23;76.64453;941.0528;;;;
2021/06/15 04:17:33;;;;;;;11.4;4.7;;;;;;;14.22;76.5752;941.0695;;;;
2021/06/15 04:19:58;;;;;;;9.2;4.6;;;;;;;14.23;76.59863;941.0831;;;;
2021/06/15 04:22:26;;;;;;;9.1;4.5;;;;;;;14.27;76.65234;941.0126;;;;
2021/06/15 04:24:53;;;;;;;6.4;3.9;;;;;;;14.25;76.46484;941.0511;;;;
2021/06/15 04:27:17;;;;;;;5.6;3.5;;;;;;;14.26;76.48828;941.0231;;;;
2021/06/15 04:29:42;;;;;;;7.2;4.2;;;;;;;14.21;76.52637;941.03;;;;
2021/06/15 04:32:10;;;;;;;10.4;4.4;;;;;;;14.17;76.8418;941.1093;;;;
2021/06/15 04:34:35;;;;;;;11.3;5.2;;;;;;;14.19;77.19043;941.0853;;;;
2021/06/15 04:37:00;;;;;;;9.4;4.2;;;;;;;14.22;77.02441;941.144;;;;
2021/06/15 04:39:25;;;;;;;8.6;4.2;;;;;;;14.29;76.53027;941.0823;;;;
2021/06/15 04:41:54;;;;;;;14.4;4.7;;;;;;;14.34;76.31738;941.0864;;;;
2021/06/15 04:44:19;;;;;;;9.9;4.1;;;;;;;14.3;76.80664;941.0776;;;;
2021/06/15 04:46:44;;;;;;;7.3;3.6;;;;;;;14.23;77.08203;941.0055;;;;
2021/06/15 04:49:09;;;;;;;7.5;4;;;;;;;14.25;77.10938;941.0167;;;;
2021/06/15 04:51:34;;;;;;;8.5;3.9;;;;;;;14.22;77.29883;941.0295;;;;
2021/06/15 04:54:01;;;;;;;8.3;3.8;;;;;;;14.1;77.7959;941.022;;;;
2021/06/15 04:56:26;;;;;;;6.5;4.1;;;;;;;14.26;77.42188;941.0343;;;;
2021/06/15 04:58:54;;;;;;;6.5;3.6;;;;;;;14.38;77.12012;941.0255;;;;
2021/06/15 05:01:19;;;;;;;6.3;3.4;;;;;;;14.59;77.59473;941.0106;;;;
2021/06/15 05:03:45;;;;;;;6.2;3.5;;;;;;;15.7;75.76074;941.0471;;;;
2021/06/15 05:06:12;;;;;;;6.5;3.7;;;;;;;16.98;68.20605;941.0224;;;;
2021/06/15 05:08:37;;;;;;;5.1;3;;;;;;;17.23;66.27344;940.9968;;;;
2021/06/15 05:11:03;;;;;;;7.9;4;;;;;;;18.39;62.86816;940.9832;;;;
2021/06/15 05:13:31;;;;;;;8;4.5;;;;;;;19.06;59.91309;940.9438;;;;
2021/06/15 05:16:06;;;;;;;10.9;5.4;;;;;;;19.95;58.02637;941.0103;;;;
2021/06/15 05:18:37;;;;;;;8.6;4.1;;;;;;;20.8;55.62598;940.9994;;;;
2021/06/15 05:21:00;;;;;;;6;3.1;;;;;;;20.86;53.85742;940.8976;;;;
2021/06/15 05:23:29;;;;;;;5.3;3.2;;;;;;;21.05;53.42285;940.9377;;;;
2021/06/15 05:25:56;;;;;;;6.4;3.3;;;;;;;21.34;52.80371;940.9213;;;;
2021/06/15 05:28:26;;;;;;;6.2;2.7;;;;;;;21.28;52.66699;940.9116;;;;
2021/06/15 05:30:51;;;;;;;5.4;2.8;;;;;;;22.71;49.2334;940.8762;;;;
2021/06/15 05:33:18;;;;;;;6.8;3.3;;;;;;;23.52;47.40625;940.8267;;;;
2021/06/15 05:35:43;;;;;;;4.3;2.8;;;;;;;24.2;45.3457;940.8558;;;;
2021/06/15 05:38:10;;;;;;;4.8;2.8;;;;;;;24.64;43.98828;940.8067;;;;
2021/06/15 05:40:35;;;;;;;5.5;2.8;;;;;;;24.52;44.18848;940.8235;;;;
2021/06/15 05:43:02;;;;;;;5.5;2.9;;;;;;;24.92;43.33203;940.7628;;;;
2021/06/15 05:45:27;;;;;;;6;2.6;;;;;;;25.51;42.5625;940.7668;;;;
2021/06/15 05:47:52;;;;;;;4.2;2.8;;;;;;;26.27;40.91895;940.7874;;;;
2021/06/15 05:50:17;;;;;;;3.6;2.5;;;;;;;26.1;40.90332;940.7439;;;;
2021/06/15 05:52:44;;;;;;;6.9;2.6;;;;;;;27.35;38.77539;940.6339;;;;
2021/06/15 05:55:10;;;;;;;4.1;2.3;;;;;;;27.37;38.50488;940.6317;;;;
2021/06/15 05:57:35;;;;;;;6.3;2.7;;;;;;;26.99;40.28418;940.6937;;;;
2021/06/15 06:00:01;;;;;;;4.8;2.5;;;;;;;27.53;38.68457;940.7225;;;;
2021/06/15 06:02:27;;;;;;;5.2;2.6;;;;;;;28.58;36.53809;940.7217;;;;
2021/06/15 06:05:08;;;;;;;4.9;2.2;;;;;;;29.07;36.00684;940.6875;;;;
2021/06/15 06:09:42;;;;;;;4.7;2.3;;;;;;;30.46;33.04785;940.6047;;;;
2021/06/15 06:12:07;;;;;;;3.7;2.5;;;;;;;31.12;30.81055;940.6581;;;;
2021/06/15 06:14:34;;;;;;;4.8;2.2;;;;;;;30.43;32.84277;940.6412;;;;
2021/06/15 06:17:01;;;;;;;5.2;2.4;;;;;;;30.03;32.51465;940.6379;;;;
2021/06/15 06:19:28;;;;;;;4.8;2.8;;;;;;;28.97;34.99902;940.6394;;;;
2021/06/15 06:21:53;;;;;;;4.8;2.6;;;;;;;29.85;32.99121;940.5987;;;;
2021/06/15 06:24:20;;;;;;;4;2.3;;;;;;;29.13;33.98633;940.5881;;;;
2021/06/15 06:26:49;;;;;;;4.3;2.5;;;;;;;29.57;34.96191;940.6127;;;;
2021/06/15 06:29:11;;;;;;;5.3;2.4;;;;;;;30.02;33.09961;940.6072;;;;
2021/06/15 06:31:36;;;;;;;3.3;2;;;;;;;30.59;33.54785;940.5797;;;;
2021/06/15 06:34:03;;;;;;;3.1;2.1;;;;;;;31.92;30.48242;940.5834;;;;
2021/06/15 06:36:28;;;;;;;4;2;;;;;;;32.43;29.08887;940.5865;;;;
2021/06/15 06:38:54;;;;;;;2.7;2.2;;;;;;;31.59;29.34668;940.5383;;;;
2021/06/15 06:41:19;;;;;;;3.9;2.2;;;;;;;31.37;31.88184;940.4796;;;;
2021/06/15 06:43:45;;;;;;;3.1;2.4;;;;;;;32.05;29.40039;940.5137;;;;
2021/06/15 06:46:10;;;;;;;2.5;2.2;;;;;;;32.57;29.25391;940.5343;;;;
2021/06/15 06:48:39;;;;;;;4.1;2.3;;;;;;;33.18;28.30859;940.4934;;;;
2021/06/15 06:51:07;;;;;;;4.8;2.1;;;;;;;32.38;28.13867;940.511;;;;
2021/06/15 06:53:33;;;;;;;4.9;2.5;;;;;;;32.82;28.26172;940.4796;;;;
2021/06/15 06:55:57;;;;;;;4.4;2.7;;;;;;;31.69;29.93945;940.3893;;;;
2021/06/15 06:58:23;;;;;;;4.1;2.7;;;;;;;32.35;31.69824;940.3883;;;;
2021/06/15 07:00:48;;;;;;;3.8;2.6;;;;;;;33.59;27.35938;940.338;;;;
2021/06/15 07:03:13;;;;;;;4.6;2.6;;;;;;;33.68;28.83203;940.3298;;;;
2021/06/15 07:05:38;;;;;;;5.8;3.1;;;;;;;35.01;25.64746;940.3416;;;;
2021/06/15 07:08:04;;;;;;;3.3;2.4;;;;;;;35.31;25.55469;940.2893;;;;
2021/06/15 07:10:29;;;;;;;3.4;2.4;;;;;;;35.76;24.50586;940.267;;;;
2021/06/15 07:12:56;;;;;;;3.7;2.5;;;;;;;36.42;24.56445;940.3137;;;;
2021/06/15 07:15:23;;;;;;;4.9;2.6;;;;;;;37.25;22.74219;940.2991;;;;
2021/06/15 07:17:49;;;;;;;4.2;2.7;;;;;;;37.13;23.2334;940.2963;;;;
2021/06/15 07:20:19;;;;;;;4.7;2;;;;;;;36.17;24.97461;940.2667;;;;
2021/06/15 07:22:44;;;;;;;3.7;2.5;;;;;;;36.03;23.98828;940.2581;;;;
2021/06/15 07:25:12;;;;;;;2.8;2.4;;;;;;;36.28;25.70605;940.2431;;;;
2021/06/15 07:27:42;;;;;;;4.2;2.2;;;;;;;36.35;26.02539;940.2444;;;;
2021/06/15 07:30:14;;;;;;;9.4;2.7;;;;;;;37.06;23.52051;940.202;;;;
2021/06/15 07:32:39;;;;;;;2.7;2.5;;;;;;;37.37;24.77246;940.1905;;;;
2021/06/15 07:35:08;;;;;;;2.2;2;;;;;;;36.29;23.68652;940.1312;;;;
2021/06/15 07:37:34;;;;;;;2.5;1.8;;;;;;;36.67;24.37207;940.2418;;;;
2021/06/15 07:39:59;;;;;;;2;1.8;;;;;;;36.19;26.07617;940.1775;;;;
2021/06/15 07:42:25;;;;;;;5.1;1.9;;;;;;;36.78;25.21387;940.2216;;;;
2021/06/15 07:44:50;;;;;;;4.3;2.3;;;;;;;36.52;25.80469;940.2502;;;;
2021/06/15 07:47:15;;;;;;;3.7;2.1;;;;;;;37.49;24.25781;940.2255;;;;
2021/06/15 07:49:43;;;;;;;5.3;2.5;;;;;;;36.81;25.22754;940.2391;;;;
2021/06/15 07:52:08;;;;;;;5.2;2.3;;;;;;;36.57;25.60156;940.1887;;;;
2021/06/15 07:54:33;;;;;;;5.5;2.1;;;;;;;35.45;27.60352;940.2249;;;;
2021/06/15 07:56:59;;;;;;;4.6;2.2;;;;;;;37.23;24.03906;940.2238;;;;
2021/06/15 07:59:25;;;;;;;3.4;2;;;;;;;37.69;22.5459;940.221;;;;
2021/06/15 08:01:50;;;;;;;4.1;1.9;;;;;;;36.49;24.88281;940.1839;;;;
2021/06/15 08:04:17;;;;;;;3.5;1.9;;;;;;;35.01;26.41992;940.1347;;;;
2021/06/15 08:06:43;;;;;;;4.8;2;;;;;;;36.49;24.68945;940.1478;;;;
2021/06/15 08:09:10;;;;;;;2.6;1.9;;;;;;;35.53;26.77539;940.0526;;;;
2021/06/15 08:11:35;;;;;;;5;2;;;;;;;36.41;25.60547;940.0892;;;;
2021/06/15 08:14:02;;;;;;;2.4;1.9;;;;;;;36.27;26.55273;940.0313;;;;
2021/06/15 08:16:33;;;;;;;3.5;2.1;;;;;;;37.51;24.17383;940.0407;;;;
2021/06/15 08:18:59;;;;;;;3.1;1.9;;;;;;;35.6;26.83984;939.998;;;;
2021/06/15 08:21:26;;;;;;;2.2;2;;;;;;;36.45;24.89258;940.0154;;;;
2021/06/15 08:23:51;;;;;;;4.2;2.1;;;;;;;36.38;25.56738;939.999;;;;
2021/06/15 08:26:16;;;;;;;2.2;1.9;;;;;;;36.43;23.94824;939.9473;;;;
2021/06/15 08:28:43;;;;;;;2.9;1.9;;;;;;;34.51;27.55957;939.937;;;;
2021/06/15 08:31:08;;;;;;;2.7;2.1;;;;;;;34.51;27.52344;939.8858;;;;
2021/06/15 08:33:35;;;;;;;4.1;2.2;;;;;;;35.78;24.75977;939.8861;;;;
2021/06/15 08:36:00;;;;;;;2.8;2;;;;;;;35.65;25.58594;939.8441;;;;
2021/06/15 08:38:25;;;;;;;2.7;2.1;;;;;;;35.8;25.88477;939.8197;;;;
2021/06/15 08:40:50;;;;;;;4.6;2.5;;;;;;;36.17;24.30957;939.8549;;;;
2021/06/15 08:43:16;;;;;;;6.2;2.3;;;;;;;35.49;26.43555;939.775;;;;
2021/06/15 08:45:42;;;;;;;5;2.2;;;;;;;35.9;25.04492;939.7783;;;;
2021/06/15 08:48:10;;;;;;;3;1.9;;;;;;;34.13;26.89844;939.8438;;;;
2021/06/15 08:50:35;;;;;;;4;2;;;;;;;35.58;25.24414;939.8396;;;;
2021/06/15 08:53:01;;;;;;;4.8;2;;;;;;;34.63;26.65039;939.7728;;;;
2021/06/15 08:55:26;;;;;;;2;1.8;;;;;;;34.94;26.84961;939.7449;;;;
2021/06/15 08:57:51;;;;;;;11.6;2.9;;;;;;;34.26;27.47266;939.7794;;;;
2021/06/15 09:00:17;;;;;;;8.5;2.6;;;;;;;34.63;27.24121;939.8125;;;;
2021/06/15 09:02:44;;;;;;;3.2;2.3;;;;;;;34.67;27.55664;939.7475;;;;
2021/06/15 09:05:09;;;;;;;7.2;2.4;;;;;;;34.43;27.8916;939.8265;;;;
2021/06/15 09:07:36;;;;;;;5.1;2.9;;;;;;;35.16;26.13867;939.8356;;;;
2021/06/15 09:10:01;;;;;;;3.3;2.1;;;;;;;35.84;25.99609;939.8148;;;;
2021/06/15 09:12:28;;;;;;;3;2.2;;;;;;;35.98;25.31445;939.8251;;;;
2021/06/15 09:14:53;;;;;;;3.4;2.1;;;;;;;35.7;25.79492;939.7811;;;;
2021/06/15 09:17:22;;;;;;;3.1;2.1;;;;;;;35.31;26.75098;939.6903;;;;
2021/06/15 09:19:50;;;;;;;2.5;2.1;;;;;;;34.88;26.99023;939.7444;;;;
2021/06/15 09:22:15;;;;;;;2.3;2.1;;;;;;;34.63;27.77148;939.7312;;;;
2021/06/15 09:24:43;;;;;;;2.7;1.9;;;;;;;34.41;27.96387;939.7269;;;;
2021/06/15 09:27:09;;;;;;;2.2;2;;;;;;;34.85;26.60352;939.7228;;;;
2021/06/15 09:29:36;;;;;;;4.1;2.3;;;;;;;33.57;29.00586;939.6496;;;;
2021/06/15 09:32:02;;;;;;;2.2;1.9;;;;;;;32.73;31.91699;939.679;;;;
2021/06/15 09:34:27;;;;;;;2.8;2.1;;;;;;;30.55;33.17383;939.6379;;;;
2021/06/15 09:36:54;;;;;;;4.1;2.2;;;;;;;31.47;32.89453;939.6951;;;;
2021/06/15 09:39:24;;;;;;;3.1;2.1;;;;;;;32;31.0752;939.6387;;;;
2021/06/15 09:41:50;;;;;;;2.2;2;;;;;;;32.34;30.60645;939.7104;;;;
2021/06/15 09:44:20;;;;;;;5.1;2.2;;;;;;;31.02;33.66309;939.5999;;;;
2021/06/15 09:46:44;;;;;;;3;2.1;;;;;;;31.17;34.3916;939.67;;;;
2021/06/15 09:49:13;;;;;;;7.9;2.3;;;;;;;30.57;35.08691;939.6531;;;;
2021/06/15 09:51:36;;;;;;;3.6;2.8;;;;;;;30.4;34.35742;939.6863;;;;
2021/06/15 09:54:01;;;;;;;3.5;2;;;;;;;30.71;33.79492;939.7047;;;;
2021/06/15 09:56:27;;;;;;;3.4;2.2;;;;;;;30.56;35.20605;939.6373;;;;
2021/06/15 09:58:54;;;;;;;4.2;2.1;;;;;;;30.29;36.70117;939.6163;;;;
2021/06/15 10:01:19;;;;;;;4.3;2.4;;;;;;;29.66;36.13672;939.5875;;;;
2021/06/15 10:03:44;;;;;;;5.5;2.3;;;;;;;29.29;37.71582;939.5148;;;;
2021/06/15 10:06:10;;;;;;;4.5;2.5;;;;;;;29.33;38.41016;939.6036;;;;
2021/06/15 10:08:40;;;;;;;3.1;2.2;;;;;;;29.34;37.82617;939.5737;;;;
2021/06/15 10:11:05;;;;;;;6.3;2.5;;;;;;;28.66;38.35254;939.5971;;;;
2021/06/15 10:13:32;;;;;;;4;2.5;;;;;;;28.73;37.59766;939.5427;;;;
2021/06/15 10:15:58;;;;;;;4.5;2.4;;;;;;;28.9;38.00488;939.5547;;;;
2021/06/15 10:18:26;;;;;;;3.1;2.3;;;;;;;28.92;37.55469;939.5793;;;;
2021/06/15 10:20:51;;;;;;;4;2.4;;;;;;;28.94;38.79395;939.5497;;;;
2021/06/15 10:23:19;;;;;;;2.9;2.2;;;;;;;29.41;36.18848;939.5289;;;;
2021/06/15 10:25:44;;;;;;;3.7;2.2;;;;;;;29.72;35.15137;939.5287;;;;
2021/06/15 10:28:11;;;;;;;3.3;2.4;;;;;;;29.48;35.93262;939.5094;;;;
2021/06/15 10:30:36;;;;;;;3;2.3;;;;;;;29.03;36.51563;939.5222;;;;
2021/06/15 10:33:04;;;;;;;13.6;4;;;;;;;29.26;36.96191;939.5449;;;;
2021/06/15 10:35:27;;;;;;;6.8;3.5;;;;;;;29.32;37.12305;939.5073;;;;
2021/06/15 10:37:53;;;;;;;3.7;2.7;;;;;;;29.16;37.00195;939.4987;;;;
2021/06/15 10:40:18;;;;;;;6.2;2.6;;;;;;;29.1;36.91406;939.5092;;;;
2021/06/15 10:42:48;;;;;;;3.6;2.5;;;;;;;28.9;38.23047;939.4875;;;;
2021/06/15 10:45:13;;;;;;;3.2;2.2;;;;;;;28.62;38.9209;939.4655;;;;
2021/06/15 10:47:41;;;;;;;4;2.3;;;;;;;28.7;38.41602;939.4639;;;;
2021/06/15 10:50:11;;;;;;;4.2;2.7;;;;;;;28.52;38.68555;939.498;;;;
2021/06/15 10:52:39;;;;;;;3.5;2.3;;;;;;;28.08;39.64648;939.3801;;;;
2021/06/15 10:55:04;;;;;;;4.8;2.6;;;;;;;27.61;40.91016;939.4116;;;;
2021/06/15 10:57:29;;;;;;;7.6;2.9;;;;;;;27.63;41.375;939.4529;;;;
2021/06/15 10:59:54;;;;;;;5.3;2.3;;;;;;;27.95;40.67969;939.4666;;;;
2021/06/15 11:02:19;;;;;;;3.9;2.3;;;;;;;27.94;40.75098;939.3738;;;;
2021/06/15 11:04:44;;;;;;;6.1;2.4;;;;;;;27.97;39.95801;939.3384;;;;
2021/06/15 11:07:10;;;;;;;4.8;2.4;;;;;;;28.03;39.82031;939.3395;;;;
2021/06/15 11:09:35;;;;;;;3.5;2.7;;;;;;;28.16;41.2334;939.343;;;;
2021/06/15 11:12:01;;;;;;;4.4;2.3;;;;;;;28.07;40.2627;939.3774;;;;
2021/06/15 11:14:27;;;;;;;6.4;2.4;;;;;;;27.98;40.73047;939.3619;;;;
2021/06/15 11:17:00;;;;;;;3.5;2.4;;;;;;;28.32;39.58301;939.3417;;;;
2021/06/15 11:19:25;;;;;;;5.1;2.7;;;;;;;28.28;40.56641;939.3458;;;;
2021/06/15 11:21:55;;;;;;;3.7;2.1;;;;;;;28.33;39.58496;939.3428;;;;
2021/06/15 11:24:20;;;;;;;5.2;2.6;;;;;;;28.48;39.12305;939.3552;;;;
2021/06/15 11:26:50;;;;;;;6.8;2.3;;;;;;;28.56;39.09375;939.3616;;;;
2021/06/15 11:29:15;;;;;;;5.1;2.3;;;;;;;28.27;41.12402;939.2818;;;;
2021/06/15 11:31:45;;;;;;;3.4;2.3;;;;;;;28.55;39.90039;939.2631;;;;
2021/06/15 11:34:15;;;;;;;4.2;2.5;;;;;;;28.21;40.18066;939.2484;;;;
2021/06/15 11:36:36;;;;;;;5.5;2.3;;;;;;;28.41;40.35352;939.206;;;;
2021/06/15 11:39:04;;;;;;;4.3;2.5;;;;;;;28.42;39.24707;939.1975;;;;
2021/06/15 11:41:29;;;;;;;4.3;2.2;;;;;;;28.26;39.98242;939.1812;;;;
2021/06/15 11:43:54;;;;;;;5;2.3;;;;;;;28.29;42.18457;939.2151;;;;
2021/06/15 11:46:19;;;;;;;4.5;2.5;;;;;;;28.63;39.37305;939.1747;;;;
2021/06/15 11:48:47;;;;;;;6.7;2.2;;;;;;;28.71;40.29785;939.2092;;;;
2021/06/15 11:51:12;;;;;;;3.2;2;;;;;;;28.76;39.95605;939.2078;;;;
2021/06/15 11:53:39;;;;;;;3.3;2.4;;;;;;;28.88;38.11035;939.202;;;;
2021/06/15 11:56:04;;;;;;;3.8;2.2;;;;;;;28.81;38.4375;939.21;;;;
2021/06/15 11:58:29;;;;;;;3.5;2.4;;;;;;;28.9;38.40918;939.2143;;;;
2021/06/15 12:01:02;;;;;;;2.8;2.2;;;;;;;29.03;37.93262;939.204;;;;
2021/06/15 12:03:25;;;;;;;5.4;1.9;;;;;;;29.12;38.33301;939.2118;;;;
2021/06/15 12:05:50;;;;;;;4.1;2;;;;;;;29.07;38.45898;939.187;;;;
2021/06/15 12:08:16;;;;;;;5.4;2.6;;;;;;;28.83;39.25879;939.2714;;;;
2021/06/15 12:10:41;;;;;;;4.1;2.1;;;;;;;28.56;39.5459;939.2363;;;;
2021/06/15 12:13:10;;;;;;;4.4;2.3;;;;;;;28.38;40.59961;939.2687;;;;
2021/06/15 12:15:50;;;;;;;3.5;2.1;;;;;;;28.55;38.51074;939.1914;;;;
2021/06/15 12:18:16;;;;;;;3.9;2.5;;;;;;;28.4;38.38965;939.1397;;;;
2021/06/15 12:20:44;;;;;;;4.9;2.5;;;;;;;28.3;39.91504;939.1742;;;;
2021/06/15 12:23:12;;;;;;;4;2.2;;;;;;;28.51;39.08887;939.1918;;;;
2021/06/15 12:25:40;;;;;;;5.9;2.1;;;;;;;28.67;37.60352;939.2103;;;;
2021/06/15 12:28:05;;;;;;;2.6;2;;;;;;;28.56;38.47461;939.1774;;;;
2021/06/15 12:30:34;;;;;;;4.8;2.2;;;;;;;28.63;39.40918;939.1649;;;;
2021/06/15 12:32:59;;;;;;;3.6;2.2;;;;;;;28.58;38.88086;939.162;;;;
2021/06/15 12:35:28;;;;;;;4.1;2.2;;;;;;;28.58;37.4668;939.1158;;;;
2021/06/15 12:37:56;;;;;;;4.1;2.3;;;;;;;28.58;37.7627;939.1113;;;;
2021/06/15 12:40:21;;;;;;;4.9;2.3;;;;;;;28.85;37.48828;939.1066;;;;
2021/06/15 12:42:51;;;;;;;3.8;2.5;;;;;;;28.73;37.85938;939.1674;;;;
2021/06/15 12:45:16;;;;;;;7.6;2.5;;;;;;;28.55;37.52246;939.1359;;;;
2021/06/15 12:47:44;;;;;;;2.7;2;;;;;;;28.48;38.71777;939.1828;;;;
2021/06/15 12:50:09;;;;;;;4;2.1;;;;;;;28.58;39.15527;939.0978;;;;
2021/06/15 12:52:34;;;;;;;9.1;2.3;;;;;;;28.48;36.64844;939.1041;;;;
2021/06/15 12:55:00;;;;;;;2.6;2;;;;;;;28.46;36.94434;939.1938;;;;
2021/06/15 12:57:25;;;;;;;5.4;2.4;;;;;;;28.4;38.37793;939.0438;;;;
2021/06/15 12:59:52;;;;;;;6.7;2.3;;;;;;;27.86;38.84277;939.0617;;;;
2021/06/15 13:02:17;;;;;;;5.4;2.4;;;;;;;27.87;36.50488;939.1234;;;;
2021/06/15 13:04:43;;;;;;;3.8;2;;;;;;;28;37.69141;939.1631;;;;
2021/06/15 13:07:08;;;;;;;4.8;2;;;;;;;28.02;37.50293;939.1816;;;;
2021/06/15 13:09:35;;;;;;;4;2.4;;;;;;;27.99;36.97754;939.1426;;;;
2021/06/15 13:12:05;;;;;;;2.1;1.9;;;;;;;28.18;38.26465;939.1378;;;;
2021/06/15 13:14:34;;;;;;;3.6;2.2;;;;;;;28.25;38.61621;939.1284;;;;
2021/06/15 13:17:06;;;;;;;2.8;1.9;;;;;;;28.08;38.79102;939.0938;;;;
2021/06/15 13:19:31;;;;;;;5.3;2;;;;;;;28.12;38.12891;939.1043;;;;
2021/06/15 13:21:56;;;;;;;4;1.9;;;;;;;27.91;37.79004;939.0844;;;;
2021/06/15 13:24:21;;;;;;;4.1;2;;;;;;;28.04;37.59863;939.1017;;;;
2021/06/15 13:26:51;;;;;;;3.5;2.1;;;;;;;28.34;36.43555;939.1506;;;;
2021/06/15 13:29:16;;;;;;;21.3;2.7;;;;;;;27.97;38.4834;939.0989;;;;
2021/06/15 13:31:46;;;;;;;4.5;2.2;;;;;;;28.14;38.15332;939.0206;;;;
2021/06/15 13:34:13;;;;;;;3.6;2.6;;;;;;;28.12;37.80762;939.1053;;;;
2021/06/15 13:36:44;;;;;;;3.4;2.4;;;;;;;28.26;37.84375;939.0898;;;;
2021/06/15 13:39:09;;;;;;;8;2.7;;;;;;;28.31;37.61035;939.0314;;;;
2021/06/15 13:41:34;;;;;;;4.3;2.3;;;;;;;28.38;38.8291;939.043;;;;
2021/06/15 13:43:59;;;;;;;5.5;2.1;;;;;;;28.22;39.46777;939.0414;;;;
2021/06/15 13:46:24;;;;;;;3.4;2.1;;;;;;;28.44;37.98926;939.0686;;;;
2021/06/15 13:48:49;;;;;;;4.5;2.4;;;;;;;28.55;36.85645;939.0721;;;;
2021/06/15 13:51:15;;;;;;;6.7;2.8;;;;;;;28.62;38.24219;939.0711;;;;
2021/06/15 13:53:40;;;;;;;5.7;2.1;;;;;;;28.71;36.47852;939.0092;;;;
2021/06/15 13:56:05;;;;;;;3.3;1.8;;;;;;;28.62;37.70703;938.9319;;;;
2021/06/15 13:58:31;;;;;;;5.7;2.4;;;;;;;28.2;37.73145;938.9129;;;;
2021/06/15 14:00:56;;;;;;;4.8;2.2;;;;;;;27.93;39.06348;938.9258;;;;
2021/06/15 14:03:25;;;;;;;5;2.3;;;;;;;28.09;39.26758;938.9888;;;;
2021/06/15 14:05:54;;;;;;;9.1;2.3;;;;;;;28.11;38.06836;938.9208;;;;
2021/06/15 14:08:19;;;;;;;3.6;2.3;;;;;;;27.91;38.20605;938.9146;;;;
2021/06/15 14:10:47;;;;;;;4.6;2.1;;;;;;;28.04;38.35938;938.9233;;;;
2021/06/15 14:13:14;;;;;;;4.2;2;;;;;;;28.01;39.98438;938.9345;;;;
2021/06/15 14:15:44;;;;;;;4.4;2.3;;;;;;;27.98;38.75781;938.892;;;;
2021/06/15 14:18:10;;;;;;;3.8;2.2;;;;;;;28.2;40.52344;938.9918;;;;
2021/06/15 14:20:42;;;;;;;4.3;2.2;;;;;;;28.26;37.65332;938.961;;;;
2021/06/15 14:23:05;;;;;;;3.7;2.2;;;;;;;28.13;36.72754;938.9645;;;;